Strona główna
METAR-TAF:

METAR-TAF

Lotnisko :

Port lotniczy Heringsdorf

Heringsdorf, Niemcy

Szerokość geograficzna: 53-53N, Długość geograficzna: 014-09E, wysokość: 28 m

Aktualna obserwacja pogody

Raport powstał 35 minut temu, godzina 11:50 UTC
Wiatr 8 kt od południowy wschód
Temperatura 22°C
Wilgotność 65%
Ciśnienie 1018 hPa
Widzialność 10 km lub więcej
Mało chmury na wysokości 3300 ft

METAR: EDAH 251150Z 14008KT 9999 FEW033 22/15 Q1018

czas: 14:25 (12:25 UTC)

Prognoza

Raport powstał 1 godzina i 25 minut temu, godzina 11:00 UTC
Prognoza ważna od 25 godzina 12 UTC do 25 godzina 21 UTC
Wiatr 8 kt od południowy wschód
Widzialność 10 km lub więcej
Rozproszone chmury na wysokości 3500 ft
Stopniowe zmiany
od 25 godzina 13 UTC do 25 godzina 15 UTC
Wiatr 7 kt od wschodnio-północny wschód

TAF: EDAH 251100Z 2512/2521 13008KT 9999 SCT035 BECMG 2513/2515 06007KT

Obserwacja i prognoza pogody dla ponad 4000 lotnisk (raport METAR i TAF).

Dostępne stacje oznaczono żółtymi i czerwonymi punktami na mapie.

Najedź kursorem aby zobaczyć nazwę stacji.

Kliknij aby zobaczyć obserwacje i prognozy pogody.

Aby zmienić mapę: kliknij na zielony przycisk z czarnym krzyżykiem, aby powiększyć; na zielony przycisk z myślnikiem, aby pomniejszyć; na zielone strzałki, aby przejść do map sąsiednich.


METAR-TAF: